»·PEaware :: COA365 KSFO-KLAX

COA365 :: KSFO-KLAX

FLIGHT INFORMATION

Flight Status: Arrived
Operator:
Continental Air Lines
More flights by this operator :: More flights under this callsign
Pilot: Andrew C. (28419)
Aircraft: BOEING 737-800
(B738)
More flights by this aircraft type
Origin: KSFO San Francisco Intl
United States
Destination: KLAX Los Angeles Intl
United States
More flights between these airports :: More routes between these airports
Route: +WESLA4 EBAYE BURGL IRNMN2
File this flight plan on PilotEdge
Remarks: RMK / SIMBRIEF
Altitude:
(Current/Filed)
37,000ft
Speed:
(Current/Filed)
459kts
Departed: 29-Sep-20 06:21 PM
Arrived: 29-Sep-20 07:21 PM
Distance/Time
Traveled:
293nm/1:00
Distance/Time
To Go:
Arrived

Flight Plot

Page will automatically refresh every two minutes.

Flight plan parsing failed; only flown route is shown


Map Options




Map Legend


Flown Route
Filed Route
Departure Airport
Arrival Airport
Navaid (VOR, NDB)
Fix

Horizontal Profiles

Position Reports

Time Latitude Longitude Heading Altitude Ground
Speed
29-Sep-20 17:51 37.620174 -122.389399 26 19ft 0kts
29-Sep-20 17:52 37.620174 -122.389399 26 19ft 0kts
29-Sep-20 17:53 37.620174 -122.389399 26 19ft 0kts
29-Sep-20 17:54 37.620173 -122.389399 26 19ft 0kts
29-Sep-20 17:55 37.620173 -122.389399 26 19ft 0kts
29-Sep-20 17:56 37.620173 -122.389399 26 19ft 0kts
29-Sep-20 17:57 37.620173 -122.389399 26 19ft 0kts
29-Sep-20 17:58 37.620173 -122.389399 26 19ft 0kts
29-Sep-20 17:59 37.620173 -122.389399 26 19ft 0kts
29-Sep-20 18:00 37.620173 -122.389399 26 19ft 0kts
29-Sep-20 18:01 37.620173 -122.389399 26 19ft 0kts
29-Sep-20 18:02 37.620173 -122.389399 26 19ft 0kts
29-Sep-20 18:03 37.620173 -122.389399 26 19ft 0kts
29-Sep-20 18:04 37.620173 -122.389399 26 19ft 0kts
29-Sep-20 18:05 37.620173 -122.389399 26 19ft 0kts
29-Sep-20 18:06 37.620173 -122.389399 26 19ft 0kts
29-Sep-20 18:07 37.620173 -122.389399 27 19ft 0kts
29-Sep-20 18:08 37.620173 -122.389399 27 19ft 0kts
29-Sep-20 18:09 37.620173 -122.389399 27 19ft 0kts
29-Sep-20 18:10 37.620000 -122.389510 26 19ft 2kts
29-Sep-20 18:11 37.619492 -122.389794 348 19ft 2kts
29-Sep-20 18:12 37.619318 -122.389596 297 19ft 0kts
29-Sep-20 18:13 37.619318 -122.389596 297 19ft 0kts
29-Sep-20 18:14 37.619833 -122.390846 298 19ft 7kts
29-Sep-20 18:15 37.622173 -122.388004 119 19ft 25kts
29-Sep-20 18:16 37.618268 -122.378531 111 19ft 27kts
29-Sep-20 18:17 37.614906 -122.369678 125 19ft 27kts
29-Sep-20 18:18 37.611183 -122.361889 117 19ft 24kts
29-Sep-20 18:19 37.610983 -122.359031 32 19ft 5kts
29-Sep-20 18:20 37.616723 -122.370277 298 20ft 138kts
29-Sep-20 18:21 37.637809 -122.424242 295 1674ft 218kts
29-Sep-20 18:22 37.670677 -122.495359 284 2987ft 241kts
29-Sep-20 18:23 37.625105 -122.544962 169 5261ft 260kts
29-Sep-20 18:24 37.557434 -122.511094 158 8454ft 271kts
29-Sep-20 18:25 37.487253 -122.466940 142 10611ft 317kts
29-Sep-20 18:26 37.424281 -122.381835 133 13193ft 343kts
29-Sep-20 18:27 37.358134 -122.291464 134 15943ft 360kts
29-Sep-20 18:28 37.288090 -122.198290 134 18460ft 375kts
29-Sep-20 18:29 37.215170 -122.100884 133 20713ft 391kts
29-Sep-20 18:30 37.140115 -121.998312 133 22741ft 406kts
29-Sep-20 18:31 37.062092 -121.890747 133 24579ft 420kts
29-Sep-20 18:32 36.981065 -121.781986 133 26340ft 431kts
29-Sep-20 18:33 36.897475 -121.672131 133 27935ft 440kts
29-Sep-20 18:34 36.811965 -121.559985 133 29374ft 450kts
29-Sep-20 18:35 36.725337 -121.445697 133 30939ft 452kts
29-Sep-20 18:36 36.639463 -121.332299 133 32571ft 449kts
29-Sep-20 18:37 36.553712 -121.219375 134 34053ft 446kts
29-Sep-20 18:38 36.468765 -121.107903 134 35459ft 442kts
29-Sep-20 18:39 36.386062 -120.995755 131 36677ft 440kts
29-Sep-20 18:40 36.305355 -120.880215 131 36999ft 445kts
29-Sep-20 18:41 36.224973 -120.765086 131 37000ft 441kts
29-Sep-20 18:42 36.144432 -120.650006 131 36999ft 443kts
29-Sep-20 18:43 36.063845 -120.535244 131 36999ft 442kts
29-Sep-20 18:44 35.982905 -120.420364 131 36999ft 442kts
29-Sep-20 18:45 35.900680 -120.307392 138 37000ft 441kts
29-Sep-20 18:46 35.803416 -120.216306 147 36999ft 441kts
29-Sep-20 18:47 35.699921 -120.134396 148 36999ft 440kts
29-Sep-20 18:48 35.596314 -120.055347 149 37000ft 439kts
29-Sep-20 18:49 35.492124 -119.976551 149 37000ft 439kts
29-Sep-20 18:50 35.388341 -119.898441 149 36999ft 438kts
29-Sep-20 18:51 35.285820 -119.819788 144 37000ft 434kts
29-Sep-20 18:52 35.188965 -119.731023 143 36934ft 437kts
29-Sep-20 18:53 35.091257 -119.638593 142 34257ft 445kts
29-Sep-20 18:55 34.994129 -119.546084 142 31206ft 445kts
29-Sep-20 18:56 34.897303 -119.456677 143 29030ft 423kts
29-Sep-20 18:57 34.800937 -119.372222 144 27726ft 426kts
29-Sep-20 18:58 34.706744 -119.289872 144 25406ft 408kts
29-Sep-20 18:59 34.610585 -119.206706 145 23998ft 387kts
29-Sep-20 19:00 34.524208 -119.131697 144 21400ft 388kts
29-Sep-20 19:01 34.439194 -119.056358 144 18920ft 356kts
29-Sep-20 19:02 34.359330 -118.987231 144 16796ft 346kts
29-Sep-20 19:03 34.282766 -118.918580 142 14764ft 338kts
29-Sep-20 19:04 34.208456 -118.850583 141 12955ft 324kts
29-Sep-20 19:05 34.142521 -118.786587 136 12037ft 295kts
29-Sep-20 19:06 34.082111 -118.720496 137 10592ft 291kts
29-Sep-20 19:07 34.032303 -118.646909 110 9440ft 278kts
29-Sep-20 19:08 34.019241 -118.553652 95 8047ft 277kts
29-Sep-20 19:09 34.011337 -118.463080 89 7070ft 244kts
29-Sep-20 19:10 34.023196 -118.381529 76 6239ft 235kts
29-Sep-20 19:11 34.036043 -118.302773 77 5388ft 233kts
29-Sep-20 19:11 34.046463 -118.237607 77 4622ft 231kts
29-Sep-20 19:13 34.041365 -118.147602 111 3239ft 225kts
29-Sep-20 19:14 33.997881 -118.104033 188 3006ft 223kts
29-Sep-20 19:14 33.957355 -118.134122 264 3001ft 209kts
29-Sep-20 19:15 33.955874 -118.196171 266 3003ft 169kts
29-Sep-20 19:16 33.950405 -118.253778 264 2255ft 169kts
29-Sep-20 19:17 33.945143 -118.305930 262 1432ft 138kts
29-Sep-20 19:18 33.940271 -118.353604 261 599ft 141kts
29-Sep-20 19:19 33.935920 -118.396488 261 115ft 68kts
29-Sep-20 19:20 33.936119 -118.403249 292 115ft 0kts
29-Sep-20 19:21 33.936030 -118.408282 286 115ft 19kts
29-Sep-20 19:22 33.938877 -118.407671 82 115ft 10kts
29-Sep-20 19:23 33.939422 -118.402032 82 115ft 23kts
29-Sep-20 19:24 33.940665 -118.400228 78 115ft 2kts
29-Sep-20 19:25 33.940686 -118.400105 78 115ft 0kts

Navigation Log

Ident Type
Flight plan parsing failed, navigation log unavailable